createdAt,value
2024-01-22T00:02:11.118Z,5.45
2024-01-22T00:04:37.496Z,5.60
2024-01-22T00:07:03.862Z,5.22
2024-01-22T00:09:30.185Z,5.19
2024-01-22T00:11:56.583Z,5.03
2024-01-22T00:14:22.923Z,5.25
2024-01-22T00:16:49.271Z,4.59
2024-01-22T00:19:15.804Z,4.26
2024-01-22T00:21:43.452Z,4.74
2024-01-22T00:24:10.263Z,4.68
2024-01-22T00:26:36.669Z,4.43
2024-01-22T00:29:03.070Z,4.84
2024-01-22T00:31:29.935Z,4.99
2024-01-22T00:33:56.383Z,5.46
2024-01-22T00:36:22.923Z,5.16
2024-01-22T00:38:49.323Z,4.87
2024-01-22T00:41:15.716Z,5.60
2024-01-22T00:43:42.071Z,5.83
2024-01-22T00:46:08.403Z,5.96
2024-01-22T00:48:34.880Z,5.35
2024-01-22T00:51:01.305Z,4.48
2024-01-22T00:53:27.712Z,4.81
2024-01-22T00:55:54.067Z,4.83
2024-01-22T00:58:20.417Z,4.77
2024-01-22T01:00:46.869Z,4.84
2024-01-22T01:03:13.588Z,5.09
2024-01-22T01:05:40.171Z,5.09
2024-01-22T01:08:06.671Z,5.39
2024-01-22T01:10:33.022Z,5.82
2024-01-22T01:12:59.441Z,5.80
2024-01-22T01:15:25.924Z,4.96
2024-01-22T01:17:52.429Z,4.80
2024-01-22T01:20:18.896Z,5.23
2024-01-22T01:22:45.306Z,5.03
2024-01-22T01:25:11.666Z,5.40
2024-01-22T01:27:38.065Z,5.34
2024-01-22T01:30:04.727Z,5.66
2024-01-22T01:32:31.718Z,5.32
2024-01-22T01:34:58.295Z,5.10
2024-01-22T01:37:24.646Z,4.57
2024-01-22T01:39:50.981Z,4.33
2024-01-22T01:42:17.398Z,4.91
2024-01-22T01:44:50.867Z,5.42
2024-01-22T01:47:17.430Z,5.57
2024-01-22T01:49:43.926Z,5.41
2024-01-22T01:52:11.691Z,5.71
2024-01-22T01:54:38.169Z,5.03
2024-01-22T01:57:05.636Z,5.21
2024-01-22T01:59:31.989Z,5.13
2024-01-22T02:01:58.422Z,5.21
2024-01-22T02:04:24.948Z,5.93
2024-01-22T02:06:51.300Z,6.01
2024-01-22T02:09:17.648Z,6.27
2024-01-22T02:11:44.013Z,4.78
2024-01-22T02:14:10.374Z,4.07
2024-01-22T02:16:36.826Z,4.50
2024-01-22T02:19:03.407Z,4.45
2024-01-22T02:21:29.820Z,3.99
2024-01-22T02:23:56.164Z,4.51
2024-01-22T02:26:22.524Z,4.69
2024-01-22T02:28:48.862Z,4.39
2024-01-22T02:31:15.441Z,4.87
2024-01-22T02:33:42.420Z,5.71
2024-01-22T02:36:08.885Z,5.57
2024-01-22T02:38:35.447Z,5.77
2024-01-22T02:41:01.852Z,5.91
2024-01-22T02:43:28.196Z,5.73
2024-01-22T02:45:54.631Z,5.77
2024-01-22T02:48:21.031Z,6.12
2024-01-22T02:50:47.473Z,5.93
2024-01-22T02:53:13.891Z,5.86
2024-01-22T02:55:40.228Z,5.66
2024-01-22T02:58:06.575Z,5.22
2024-01-22T03:00:33.333Z,5.06
2024-01-22T03:02:59.795Z,4.99
2024-01-22T03:05:26.298Z,4.89
2024-01-22T03:07:52.662Z,5.08
2024-01-22T03:10:19.008Z,5.28
2024-01-22T03:12:47.005Z,4.74
2024-01-22T03:15:13.436Z,4.22
2024-01-22T03:17:39.902Z,4.82
2024-01-22T03:20:06.751Z,4.70
2024-01-22T03:22:33.137Z,5.30
2024-01-22T03:24:59.600Z,5.46
2024-01-22T03:27:26.022Z,5.45
2024-01-22T03:29:52.808Z,5.53
2024-01-22T03:32:19.182Z,5.32
2024-01-22T03:34:45.690Z,5.68
2024-01-22T03:37:12.385Z,5.86
2024-01-22T03:39:38.724Z,5.55
2024-01-22T03:42:05.333Z,5.84
2024-01-22T03:44:31.763Z,6.12
2024-01-22T03:46:58.115Z,5.92
2024-01-22T03:49:24.566Z,6.00
2024-01-22T03:51:50.966Z,5.37
2024-01-22T03:54:17.507Z,5.57
2024-01-22T03:56:45.123Z,5.43
2024-01-22T03:59:11.716Z,4.93
2024-01-22T04:01:38.047Z,5.29
2024-01-22T04:04:04.594Z,4.56
2024-01-22T04:06:31.112Z,4.51
2024-01-22T04:08:57.591Z,5.36
2024-01-22T04:11:23.959Z,4.76
2024-01-22T04:13:50.302Z,5.07
2024-01-22T04:16:16.817Z,4.78
2024-01-22T04:18:43.902Z,5.13
2024-01-22T04:21:10.900Z,5.70
2024-01-22T04:23:37.352Z,5.66
2024-01-22T04:26:04.180Z,5.87
2024-01-22T04:28:30.515Z,6.27
2024-01-22T04:30:56.885Z,6.01
2024-01-22T04:33:23.366Z,6.17
2024-01-22T04:35:50.882Z,6.08
2024-01-22T04:38:17.916Z,6.10
2024-01-22T04:40:44.271Z,4.64
2024-01-22T04:43:10.623Z,4.46
2024-01-22T04:45:37.470Z,4.73
2024-01-22T04:48:03.878Z,5.01
2024-01-22T04:50:30.495Z,5.50
2024-01-22T04:52:56.925Z,5.27
2024-01-22T04:55:24.856Z,5.19
2024-01-22T04:57:53.491Z,4.99
2024-01-22T05:00:20.350Z,4.77
2024-01-22T05:02:46.971Z,4.66
2024-01-22T05:05:13.695Z,4.88
2024-01-22T05:07:40.109Z,4.91
2024-01-22T05:10:07.312Z,5.85
2024-01-22T05:12:33.670Z,6.34
2024-01-22T05:15:00.029Z,5.82
2024-01-22T05:17:27.856Z,5.83
2024-01-22T05:19:54.495Z,5.46
2024-01-22T05:22:21.010Z,3.92
2024-01-22T05:24:47.373Z,5.08
2024-01-22T05:27:13.875Z,5.65
2024-01-22T05:29:40.341Z,5.88
2024-01-22T05:32:06.790Z,5.84
2024-01-22T05:34:33.199Z,6.18
2024-01-22T05:36:59.641Z,5.93
2024-01-22T05:39:27.695Z,6.21
2024-01-22T05:41:54.810Z,6.59
2024-01-22T05:44:21.188Z,6.87
2024-01-22T05:46:47.570Z,6.54
2024-01-22T05:49:14.023Z,6.88
2024-01-22T05:51:40.397Z,6.68
2024-01-22T05:54:06.886Z,6.61
2024-01-22T05:56:33.999Z,6.24
2024-01-22T05:59:00.389Z,6.40
2024-01-22T06:01:27.212Z,6.61
2024-01-22T06:03:54.020Z,6.95
2024-01-22T06:06:20.501Z,6.88
2024-01-22T06:08:47.277Z,7.04
2024-01-22T06:11:13.645Z,6.65
2024-01-22T06:13:53.079Z,6.67
2024-01-22T06:16:26.731Z,6.66
2024-01-22T06:18:53.172Z,6.45
2024-01-22T06:21:19.722Z,6.55
2024-01-22T06:23:47.743Z,6.03
2024-01-22T06:26:14.165Z,6.30
2024-01-22T06:28:40.569Z,6.63
2024-01-22T06:31:07.370Z,6.96
2024-01-22T06:33:33.891Z,6.65
2024-01-22T06:36:00.366Z,6.27
2024-01-22T06:38:26.742Z,5.78
2024-01-22T06:40:53.397Z,6.44
2024-01-22T06:43:19.759Z,7.00
2024-01-22T06:45:46.101Z,7.20
2024-01-22T06:48:13.181Z,7.47
2024-01-22T06:50:40.397Z,7.62
2024-01-22T06:53:06.793Z,7.67
2024-01-22T06:55:33.188Z,7.38
2024-01-22T06:57:59.554Z,7.27
2024-01-22T07:00:26.062Z,7.64
2024-01-22T07:02:52.590Z,7.69
2024-01-22T07:05:19.530Z,5.30
2024-01-22T07:07:45.991Z,4.79
2024-01-22T07:10:12.522Z,5.30
2024-01-22T07:12:41.657Z,6.34
2024-01-22T07:15:13.458Z,6.65
2024-01-22T07:17:41.288Z,6.55
2024-01-22T07:20:09.711Z,7.10
2024-01-22T07:22:37.576Z,6.91
2024-01-22T07:25:04.380Z,6.47
2024-01-22T07:27:30.934Z,7.03
2024-01-22T07:29:57.879Z,7.37
2024-01-22T07:32:24.322Z,6.94
2024-01-22T07:34:50.892Z,7.37
2024-01-22T07:37:17.708Z,7.47
2024-01-22T07:39:44.177Z,7.49
2024-01-22T07:42:10.981Z,6.91
2024-01-22T07:44:37.407Z,6.77
2024-01-22T07:47:03.874Z,6.70
2024-01-22T07:49:30.287Z,6.87
2024-01-22T07:51:56.808Z,7.23
2024-01-22T07:54:23.324Z,7.73
2024-01-22T07:56:49.812Z,7.88
2024-01-22T07:59:16.800Z,7.88
2024-01-22T08:01:43.191Z,7.72
2024-01-22T08:04:09.590Z,7.94
2024-01-22T08:06:36.010Z,7.80
2024-01-22T08:09:03.159Z,7.99
2024-01-22T08:11:29.649Z,8.09
2024-01-22T08:13:55.972Z,8.19
2024-01-22T08:16:22.324Z,8.17
2024-01-22T08:18:49.016Z,8.05
2024-01-22T08:21:16.027Z,8.06
2024-01-22T08:23:42.420Z,7.95
2024-01-22T08:26:08.793Z,8.12
2024-01-22T08:28:35.137Z,8.28
2024-01-22T08:31:01.995Z,8.33
2024-01-22T08:33:28.606Z,8.28
2024-01-22T08:35:55.198Z,6.96
2024-01-22T08:38:21.640Z,6.32
2024-01-22T08:40:47.984Z,5.98
2024-01-22T08:43:14.359Z,7.05
2024-01-22T08:45:40.746Z,7.67
2024-01-22T08:48:07.251Z,5.85
2024-01-22T08:50:33.641Z,5.56
2024-01-22T08:52:59.995Z,6.10
2024-01-22T08:55:26.404Z,7.42
2024-01-22T08:57:54.756Z,7.68
2024-01-22T09:00:22.434Z,6.42
2024-01-22T09:02:49.135Z,6.12
2024-01-22T09:05:15.779Z,7.02
2024-01-22T09:07:43.113Z,7.96
2024-01-22T09:10:10.145Z,7.98
2024-01-22T09:12:36.745Z,8.48
2024-01-22T09:15:04.038Z,8.28
2024-01-22T09:17:31.418Z,7.51
2024-01-22T09:19:58.215Z,7.46
2024-01-22T09:22:24.744Z,8.50
2024-01-22T09:24:53.164Z,8.90
2024-01-22T09:27:19.580Z,9.09
2024-01-22T09:29:46.513Z,8.83
2024-01-22T09:32:12.875Z,9.12
2024-01-22T09:34:39.326Z,9.06
2024-01-22T09:37:05.997Z,7.17
2024-01-22T09:39:32.605Z,7.14
2024-01-22T09:41:59.357Z,8.01
2024-01-22T09:44:25.976Z,8.89
2024-01-22T09:46:52.374Z,8.80
2024-01-22T09:49:18.920Z,8.77
2024-01-22T09:51:45.477Z,8.93
2024-01-22T09:54:12.715Z,9.15
2024-01-22T09:56:39.605Z,8.25
2024-01-22T09:59:12.989Z,8.37
2024-01-22T10:01:39.333Z,9.08
2024-01-22T10:04:06.890Z,9.21
2024-01-22T10:06:35.045Z,9.18
2024-01-22T10:09:01.991Z,9.50
2024-01-22T10:11:28.356Z,9.71
2024-01-22T10:13:56.075Z,9.75
2024-01-22T10:16:24.868Z,9.09
2024-01-22T10:18:57.716Z,9.25
2024-01-22T10:21:24.540Z,9.47
2024-01-22T10:24:00.726Z,9.42
2024-01-22T10:26:27.403Z,9.25
2024-01-22T10:28:53.940Z,9.62
2024-01-22T10:31:20.371Z,9.81
2024-01-22T10:33:47.212Z,9.98
2024-01-22T10:36:14.925Z,9.79
2024-01-22T10:38:41.406Z,9.01
2024-01-22T10:41:20.381Z,9.42
2024-01-22T10:43:46.981Z,9.10
2024-01-22T10:46:13.831Z,9.52
2024-01-22T10:48:45.146Z,9.64
2024-01-22T10:51:14.308Z,9.38
2024-01-22T10:53:41.547Z,9.88
2024-01-22T10:56:24.872Z,9.71
2024-01-22T10:58:52.447Z,9.37
2024-01-22T11:01:21.168Z,9.57
2024-01-22T11:03:48.812Z,9.90
2024-01-22T11:06:19.260Z,9.58
2024-01-22T11:11:27.457Z,9.98
2024-01-22T11:13:56.597Z,9.75
2024-01-22T11:16:23.110Z,8.85
2024-01-22T11:18:56.264Z,9.90
2024-01-22T11:21:23.057Z,8.92
2024-01-22T11:24:04.631Z,8.64
2024-01-22T11:26:31.045Z,8.95
2024-01-22T11:29:15.790Z,9.38
2024-01-22T11:31:42.425Z,9.81
2024-01-22T11:34:11.401Z,10.17
2024-01-22T11:36:50.727Z,10.03
2024-01-22T11:39:44.266Z,9.70
2024-01-22T11:42:27.036Z,10.02
2024-01-22T11:44:54.213Z,9.32
2024-01-22T11:47:21.329Z,9.82
2024-01-22T11:49:47.904Z,10.29
2024-01-22T11:52:15.381Z,9.77
2024-01-22T11:54:56.461Z,9.71
2024-01-22T11:57:23.038Z,9.76
2024-01-22T11:59:59.475Z,9.58
2024-01-22T12:02:25.883Z,10.10
2024-01-22T12:05:01.962Z,10.70
2024-01-22T12:07:34.515Z,9.93
2024-01-22T12:10:01.166Z,10.40
2024-01-22T12:12:27.607Z,10.69
2024-01-22T12:15:00.655Z,10.93
2024-01-22T12:17:27.106Z,10.98
2024-01-22T12:19:59.512Z,11.08
2024-01-22T12:22:27.810Z,10.40
2024-01-22T12:25:08.146Z,10.93
2024-01-22T12:27:34.756Z,11.19
2024-01-22T12:30:02.062Z,11.32
2024-01-22T12:32:28.714Z,11.37
2024-01-22T12:34:58.447Z,11.29
2024-01-22T12:37:26.365Z,10.35
2024-01-22T12:40:15.628Z,10.88
2024-01-22T12:42:42.864Z,11.25
2024-01-22T12:45:12.260Z,10.88
2024-01-22T12:47:38.750Z,10.42
2024-01-22T12:50:05.788Z,10.82
2024-01-22T12:52:32.854Z,10.89
2024-01-22T12:55:02.168Z,10.71
2024-01-22T12:57:29.305Z,10.02
2024-01-22T12:59:55.792Z,10.54
2024-01-22T13:02:22.516Z,10.70
2024-01-22T13:04:50.618Z,10.60
2024-01-22T13:07:17.703Z,11.34
2024-01-22T13:09:44.110Z,11.49
2024-01-22T13:12:10.662Z,11.58
2024-01-22T13:14:37.391Z,11.64
2024-01-22T13:17:05.390Z,11.66
2024-01-22T13:19:32.821Z,11.22
2024-01-22T13:22:00.102Z,11.43
2024-01-22T13:24:27.374Z,11.33
2024-01-22T13:26:54.272Z,10.93
2024-01-22T13:29:21.159Z,11.33
2024-01-22T13:31:47.588Z,11.50
2024-01-22T13:34:14.097Z,11.40
2024-01-22T13:36:40.915Z,11.17
2024-01-22T13:39:10.730Z,11.36
2024-01-22T13:41:37.111Z,11.13
2024-01-22T13:44:06.483Z,11.13
2024-01-22T13:46:33.685Z,11.42
2024-01-22T13:49:00.438Z,9.79
2024-01-22T13:51:26.921Z,10.30
2024-01-22T13:53:53.322Z,10.98
2024-01-22T13:56:20.247Z,9.84
2024-01-22T13:58:46.818Z,10.29
2024-01-22T14:01:13.217Z,10.96
2024-01-22T14:03:39.855Z,10.94
2024-01-22T14:06:09.447Z,10.47
2024-01-22T14:08:36.205Z,10.64
2024-01-22T14:11:02.582Z,10.93
2024-01-22T14:13:29.818Z,11.10
2024-01-22T14:15:56.225Z,11.24
2024-01-22T14:18:24.460Z,10.61
2024-01-22T14:20:50.951Z,10.53
2024-01-22T14:23:18.104Z,10.42
2024-01-22T14:25:44.504Z,9.99
2024-01-22T14:28:11.008Z,9.42
2024-01-22T14:30:37.972Z,7.90
2024-01-22T14:33:04.584Z,7.21
2024-01-22T14:35:31.414Z,6.96
2024-01-22T14:37:57.869Z,6.64
2024-01-22T14:40:24.359Z,6.55
2024-01-22T14:42:50.754Z,6.01
2024-01-22T14:45:17.162Z,6.22
2024-01-22T14:47:43.630Z,6.83
2024-01-22T14:50:10.130Z,7.36
2024-01-22T14:52:36.861Z,7.40
2024-01-22T14:55:03.234Z,7.08
2024-01-22T14:57:29.690Z,7.21
2024-01-22T14:59:56.109Z,6.98
2024-01-22T15:02:22.923Z,7.76
2024-01-22T15:04:50.202Z,7.93
2024-01-22T15:07:16.692Z,8.28
2024-01-22T15:09:43.084Z,8.53
2024-01-22T15:12:09.674Z,9.10
2024-01-22T15:14:36.814Z,9.00
2024-01-22T15:17:03.513Z,9.18
2024-01-22T15:19:30.315Z,8.87
2024-01-22T15:21:58.819Z,9.15
2024-01-22T15:24:27.017Z,9.22
2024-01-22T15:26:55.066Z,9.50
2024-01-22T15:29:21.468Z,9.58
2024-01-22T15:31:48.545Z,9.37
2024-01-22T15:34:15.302Z,8.31
2024-01-22T15:36:41.769Z,7.92
2024-01-22T15:39:09.206Z,6.79
2024-01-22T15:41:36.270Z,7.62
2024-01-22T15:44:04.610Z,8.49
2024-01-22T15:46:31.272Z,8.68
2024-01-22T15:48:57.893Z,8.80
2024-01-22T15:51:24.500Z,8.40
2024-01-22T15:53:51.023Z,8.18
2024-01-22T15:56:19.166Z,8.30
2024-01-22T15:58:45.830Z,7.91
2024-01-22T16:01:17.518Z,8.34
2024-01-22T16:03:44.745Z,6.81
2024-01-22T16:06:11.363Z,6.74
2024-01-22T16:08:37.888Z,6.59
2024-01-22T16:11:04.560Z,7.93
2024-01-22T16:13:31.036Z,8.54
2024-01-22T16:15:57.519Z,8.73
2024-01-22T16:18:23.989Z,8.39
2024-01-22T16:20:50.538Z,8.09
2024-01-22T16:23:17.847Z,8.39
2024-01-22T16:25:44.247Z,7.12
2024-01-22T16:28:10.754Z,7.96
2024-01-22T16:30:42.158Z,8.29
2024-01-22T16:33:10.199Z,9.08
2024-01-22T16:35:36.753Z,8.72
2024-01-22T16:38:03.171Z,9.07
2024-01-22T16:40:29.555Z,9.63
2024-01-22T16:42:56.225Z,8.23
2024-01-22T16:45:22.645Z,7.74
2024-01-22T16:47:49.232Z,8.02
2024-01-22T16:50:15.761Z,7.82
2024-01-22T16:52:42.264Z,8.87
2024-01-22T16:55:10.630Z,8.98
2024-01-22T16:57:38.404Z,8.95
2024-01-22T17:00:04.961Z,8.42
2024-01-22T17:02:31.304Z,7.49
2024-01-22T17:04:57.745Z,8.55
2024-01-22T17:07:24.190Z,8.28
2024-01-22T17:09:50.723Z,8.73
2024-01-22T17:12:17.217Z,9.05
2024-01-22T17:14:43.589Z,9.31
2024-01-22T17:17:10.063Z,8.48
2024-01-22T17:19:37.593Z,8.54
2024-01-22T17:22:04.021Z,9.09
2024-01-22T17:24:33.074Z,9.35
2024-01-22T17:26:59.567Z,9.34
2024-01-22T17:29:26.216Z,9.20
2024-01-22T17:31:53.646Z,8.44
2024-01-22T17:34:20.221Z,8.58
2024-01-22T17:36:47.277Z,8.65
2024-01-22T17:39:18.151Z,9.34
2024-01-22T17:41:44.519Z,9.68
2024-01-22T17:44:10.877Z,9.43
2024-01-22T17:46:39.196Z,7.60
2024-01-22T17:49:05.603Z,7.83
2024-01-22T17:51:31.990Z,8.35
2024-01-22T17:53:58.410Z,8.81
2024-01-22T17:56:24.823Z,8.90
2024-01-22T17:58:51.206Z,7.01
2024-01-22T18:01:17.614Z,6.57
2024-01-22T18:03:44.172Z,7.67
2024-01-22T18:06:10.673Z,8.11
2024-01-22T18:08:37.097Z,7.50
2024-01-22T18:11:03.495Z,7.78
2024-01-22T18:13:29.857Z,7.83
2024-01-22T18:15:57.832Z,8.06
2024-01-22T18:18:24.427Z,8.62
2024-01-22T18:20:51.026Z,8.85
2024-01-22T18:23:17.428Z,8.87
2024-01-22T18:25:43.765Z,8.86
2024-01-22T18:28:11.019Z,8.76
2024-01-22T18:30:40.225Z,8.28
2024-01-22T18:33:07.465Z,8.62
2024-01-22T18:35:33.877Z,8.37
2024-01-22T18:38:00.236Z,7.75
2024-01-22T18:40:26.586Z,7.39
2024-01-22T18:42:53.114Z,8.60
2024-01-22T18:45:19.537Z,8.87
2024-01-22T18:47:45.975Z,8.17
2024-01-22T18:50:12.350Z,7.97
2024-01-22T18:52:38.693Z,8.44
2024-01-22T18:55:05.212Z,8.44
2024-01-22T18:57:31.604Z,8.37
2024-01-22T18:59:58.034Z,8.49
2024-01-22T19:02:24.498Z,7.81
2024-01-22T19:04:50.881Z,8.44
2024-01-22T19:07:17.243Z,8.91
2024-01-22T19:09:44.816Z,7.90
2024-01-22T19:12:11.257Z,8.47
2024-01-22T19:14:37.620Z,8.67
2024-01-22T19:17:06.057Z,8.71
2024-01-22T19:19:32.985Z,8.56
2024-01-22T19:21:59.373Z,8.88
2024-01-22T19:24:25.855Z,7.99
2024-01-22T19:26:52.290Z,7.87
2024-01-22T19:29:18.730Z,7.48
2024-01-22T19:31:45.492Z,7.58
2024-01-22T19:34:12.498Z,7.63
2024-01-22T19:36:39.037Z,7.80
2024-01-22T19:39:06.269Z,8.13
2024-01-22T19:41:32.843Z,8.89
2024-01-22T19:43:59.322Z,8.64
2024-01-22T19:46:25.780Z,8.89
2024-01-22T19:48:58.283Z,8.59
2024-01-22T19:51:28.078Z,8.62
2024-01-22T19:53:54.543Z,8.81
2024-01-22T19:56:20.946Z,9.37
2024-01-22T19:58:47.370Z,9.31
2024-01-22T20:01:13.769Z,8.68
2024-01-22T20:03:40.297Z,8.26
2024-01-22T20:06:06.956Z,8.35
2024-01-22T20:08:33.383Z,9.22
2024-01-22T20:10:59.709Z,7.81
2024-01-22T20:13:26.203Z,8.29
2024-01-22T20:15:52.552Z,8.12
2024-01-22T20:18:19.067Z,8.30
2024-01-22T20:20:45.522Z,8.36
2024-01-22T20:23:12.124Z,8.56
2024-01-22T20:25:38.566Z,8.86
2024-01-22T20:28:05.911Z,8.64
2024-01-22T20:30:32.305Z,8.62
2024-01-22T20:32:59.004Z,7.78
2024-01-22T20:35:25.493Z,8.48
2024-01-22T20:37:52.030Z,9.18
2024-01-22T20:40:18.373Z,9.47
2024-01-22T20:42:45.637Z,8.73
2024-01-22T20:45:12.465Z,8.58
2024-01-22T20:47:38.921Z,8.47
2024-01-22T20:50:05.378Z,6.50
2024-01-22T20:52:31.716Z,6.67
2024-01-22T20:54:58.170Z,6.19
2024-01-22T20:57:24.726Z,6.31
2024-01-22T20:59:51.265Z,7.06
2024-01-22T21:02:17.738Z,7.60
2024-01-22T21:04:44.372Z,8.19
2024-01-22T21:07:13.421Z,8.48
2024-01-22T21:09:40.022Z,8.72
2024-01-22T21:12:06.842Z,7.66
2024-01-22T21:14:35.736Z,7.12
2024-01-22T21:17:02.244Z,7.84
2024-01-22T21:19:28.972Z,8.39
2024-01-22T21:21:55.527Z,8.91
2024-01-22T21:24:21.941Z,9.13
2024-01-22T21:26:48.381Z,9.38
2024-01-22T21:29:16.758Z,9.39
2024-01-22T21:31:45.054Z,9.08
2024-01-22T21:34:11.610Z,9.23
2024-01-22T21:36:38.608Z,7.57
2024-01-22T21:39:05.057Z,6.96
2024-01-22T21:41:31.480Z,7.97
2024-01-22T21:43:57.835Z,8.41
2024-01-22T21:46:24.211Z,8.95
2024-01-22T21:48:50.731Z,9.08
2024-01-22T21:51:17.266Z,9.00
2024-01-22T21:53:45.620Z,8.63
2024-01-22T21:56:13.866Z,9.29
2024-01-22T21:58:40.753Z,9.06
2024-01-22T22:01:08.398Z,8.75
2024-01-22T22:03:34.918Z,7.81
2024-01-22T22:06:01.613Z,7.09
2024-01-22T22:08:28.227Z,7.56
2024-01-22T22:10:55.031Z,8.58
2024-01-22T22:13:21.705Z,8.18
2024-01-22T22:15:48.271Z,9.07
2024-01-22T22:18:15.186Z,8.95
2024-01-22T22:20:41.662Z,8.81
2024-01-22T22:23:08.108Z,9.35
2024-01-22T22:25:34.686Z,9.29
2024-01-22T22:28:01.019Z,7.66
2024-01-22T22:30:27.636Z,7.71
2024-01-22T22:32:58.555Z,8.41
2024-01-22T22:35:28.205Z,8.31
2024-01-22T22:37:54.615Z,8.60
2024-01-22T22:40:20.987Z,8.18
2024-01-22T22:42:47.377Z,8.51
2024-01-22T22:45:13.754Z,8.93
2024-01-22T22:47:40.432Z,8.77
2024-01-22T22:50:08.664Z,8.69
2024-01-22T22:52:35.272Z,8.48
2024-01-22T22:55:01.673Z,8.12
2024-01-22T22:57:29.246Z,6.55
2024-01-22T22:59:55.881Z,6.42
2024-01-22T23:02:23.170Z,7.35
2024-01-22T23:04:49.680Z,7.88
2024-01-22T23:07:16.238Z,8.08
2024-01-22T23:09:42.668Z,8.81
2024-01-22T23:12:09.154Z,7.01
2024-01-22T23:14:35.707Z,6.66
2024-01-22T23:17:02.359Z,7.24
2024-01-22T23:19:28.803Z,6.86
2024-01-22T23:21:55.180Z,7.27
2024-01-22T23:24:21.758Z,7.22
2024-01-22T23:26:48.216Z,8.07
2024-01-22T23:29:14.581Z,8.83
2024-01-22T23:31:41.260Z,8.72
2024-01-22T23:34:07.652Z,8.41
2024-01-22T23:36:34.190Z,8.51
2024-01-22T23:39:03.125Z,8.43
2024-01-22T23:41:29.492Z,7.33
2024-01-22T23:43:55.847Z,8.27
2024-01-22T23:46:22.202Z,7.85
2024-01-22T23:48:48.930Z,7.31
2024-01-22T23:51:16.260Z,7.93
2024-01-22T23:53:42.759Z,8.20
2024-01-22T23:56:09.159Z,8.75
2024-01-22T23:58:35.636Z,8.24
